Terminal Aerodrome Forecast
Issued by NWS

Current Version | Previous Version | Text Only | Print | Product List | Glossary On
Versions: 1 2 3 4 5 6 7 8 9 10 11 12 13 14 15 16 17 18 19 20 21
061
FTUS41 KGYX 061328 AAA
TAFAUG
TAF AMD
KAUG 061328Z 0613/0712 03011G18KT P6SM OVC019
     FM061500 01009KT P6SM BKN035
     FM062200 11008KT P6SM OVC015
     FM070300 18005KT 4SM BR OVC003=

USA.gov is the U.S. government's official web portal to all federal, state and local government web resources and services.